createdAt,value
2022-09-07T00:01:19.085Z,59.38
2022-09-07T00:03:47.539Z,59.57
2022-09-07T00:06:16.283Z,59.66
2022-09-07T00:08:44.594Z,59.89
2022-09-07T00:11:17.131Z,59.96
2022-09-07T00:13:47.687Z,60.10
2022-09-07T00:16:19.564Z,60.15
2022-09-07T00:18:48.458Z,60.31
2022-09-07T00:21:18.048Z,60.59
2022-09-07T00:23:48.335Z,60.74
2022-09-07T00:26:20.420Z,60.96
2022-09-07T00:28:49.470Z,61.11
2022-09-07T00:31:22.938Z,61.40
2022-09-07T00:33:52.602Z,61.42
2022-09-07T00:36:22.729Z,61.62
2022-09-07T00:38:51.009Z,61.83
2022-09-07T00:41:21.276Z,62.10
2022-09-07T00:43:55.890Z,62.22
2022-09-07T00:46:27.215Z,62.32
2022-09-07T00:49:12.790Z,62.34
2022-09-07T00:51:53.732Z,62.57
2022-09-07T00:54:28.230Z,62.61
2022-09-07T00:56:56.662Z,62.80
2022-09-07T00:59:29.437Z,62.94
2022-09-07T01:01:58.057Z,63.07
2022-09-07T01:04:31.210Z,63.20
2022-09-07T01:06:59.985Z,63.39
2022-09-07T01:09:31.103Z,63.26
2022-09-07T01:12:00.942Z,63.31
2022-09-07T01:14:33.881Z,63.60
2022-09-07T01:17:20.953Z,63.83
2022-09-07T01:19:49.564Z,63.98
2022-09-07T01:22:36.253Z,63.99
2022-09-07T01:25:14.382Z,64.22
2022-09-07T01:28:08.841Z,64.49
2022-09-07T01:30:39.268Z,64.54
2022-09-07T01:33:34.022Z,64.66
2022-09-07T01:36:34.300Z,64.60
2022-09-07T01:39:06.538Z,64.86
2022-09-07T01:41:58.233Z,65.00
2022-09-07T01:44:30.407Z,64.97
2022-09-07T01:47:33.102Z,65.04
2022-09-07T01:50:13.399Z,65.14
2022-09-07T01:52:51.205Z,65.20
2022-09-07T01:55:27.338Z,65.23
2022-09-07T01:58:04.251Z,65.16
2022-09-07T02:00:35.856Z,65.29
2022-09-07T02:03:19.951Z,65.29
2022-09-07T02:06:07.530Z,65.39
2022-09-07T02:08:57.557Z,65.69
2022-09-07T02:11:48.146Z,65.39
2022-09-07T02:14:23.709Z,65.83
2022-09-07T02:17:05.485Z,65.89
2022-09-07T02:19:42.938Z,66.00
2022-09-07T02:22:16.955Z,66.06
2022-09-07T02:24:51.217Z,66.16
2022-09-07T02:27:27.679Z,66.43
2022-09-07T02:29:55.928Z,66.37
2022-09-07T02:32:24.170Z,66.31
2022-09-07T02:34:52.225Z,66.22
2022-09-07T02:37:21.839Z,66.10
2022-09-07T02:39:50.059Z,66.09
2022-09-07T02:42:18.080Z,66.22
2022-09-07T02:44:48.319Z,66.19
2022-09-07T02:47:26.509Z,66.25
2022-09-07T02:50:22.101Z,66.27
2022-09-07T02:53:22.567Z,66.26
2022-09-07T02:56:02.620Z,66.32
2022-09-07T02:58:52.326Z,66.43
2022-09-07T03:01:38.541Z,66.51
2022-09-07T03:04:29.801Z,66.57
2022-09-07T03:07:25.306Z,66.57
2022-09-07T03:09:57.747Z,66.60
2022-09-07T03:12:37.826Z,66.52
2022-09-07T03:15:06.738Z,66.33
2022-09-07T03:17:34.777Z,66.49
2022-09-07T03:20:03.483Z,66.65
2022-09-07T03:22:33.521Z,66.63
2022-09-07T03:25:04.386Z,66.65
2022-09-07T03:27:33.183Z,66.69
2022-09-07T03:30:02.104Z,66.58
2022-09-07T03:32:32.372Z,66.57
2022-09-07T03:35:01.586Z,66.56
2022-09-07T03:37:29.992Z,66.63
2022-09-07T03:39:58.351Z,66.54
2022-09-07T03:42:26.318Z,66.35
2022-09-07T03:44:54.550Z,66.37
2022-09-07T03:47:22.940Z,66.38
2022-09-07T03:49:51.926Z,66.42
2022-09-07T03:52:19.816Z,66.42
2022-09-07T03:54:48.040Z,66.41
2022-09-07T03:57:16.114Z,66.47
2022-09-07T03:59:43.930Z,66.71
2022-09-07T04:02:12.269Z,66.98
2022-09-07T04:04:42.321Z,67.17
2022-09-07T04:07:10.352Z,67.18
2022-09-07T04:09:38.509Z,67.18
2022-09-07T04:12:06.381Z,67.13
2022-09-07T04:14:34.332Z,67.43
2022-09-07T04:17:02.651Z,67.41
2022-09-07T04:19:30.704Z,67.62
2022-09-07T04:21:58.748Z,67.77
2022-09-07T04:24:26.926Z,67.87
2022-09-07T04:26:54.903Z,67.93
2022-09-07T04:29:22.871Z,68.04
2022-09-07T04:31:51.015Z,68.11
2022-09-07T04:34:18.930Z,68.18
2022-09-07T04:36:47.112Z,68.34
2022-09-07T04:39:15.232Z,68.40
2022-09-07T04:41:43.104Z,68.47
2022-09-07T04:44:14.891Z,68.76
2022-09-07T04:46:45.273Z,68.79
2022-09-07T04:49:14.542Z,68.98
2022-09-07T04:51:44.471Z,68.99
2022-09-07T04:54:13.592Z,68.92
2022-09-07T04:56:42.076Z,69.19
2022-09-07T04:59:10.092Z,69.14
2022-09-07T05:01:38.401Z,69.12
2022-09-07T05:04:06.396Z,68.95
2022-09-07T05:06:34.551Z,68.98
2022-09-07T05:09:03.055Z,69.04
2022-09-07T05:11:30.977Z,68.88
2022-09-07T05:14:00.843Z,68.95
2022-09-07T05:16:30.636Z,68.85
2022-09-07T05:19:01.385Z,68.73
2022-09-07T05:21:32.116Z,68.83
2022-09-07T05:24:01.227Z,68.78
2022-09-07T05:26:31.869Z,68.30
2022-09-07T05:31:52.314Z,67.84
2022-09-07T05:34:35.798Z,67.78
2022-09-07T05:37:03.884Z,67.42
2022-09-07T05:39:32.046Z,67.42
2022-09-07T05:41:59.935Z,67.20
2022-09-07T05:44:43.827Z,67.19
2022-09-07T05:47:12.755Z,66.68
2022-09-07T05:49:40.900Z,66.50
2022-09-07T05:52:08.742Z,65.43
2022-09-07T05:54:36.717Z,64.38
2022-09-07T05:57:05.098Z,63.62
2022-09-07T05:59:33.935Z,63.15
2022-09-07T06:02:01.983Z,62.94
2022-09-07T06:04:30.058Z,62.05
2022-09-07T06:07:20.969Z,61.47
2022-09-07T06:12:34.707Z,60.05
2022-09-07T06:15:03.091Z,58.76
2022-09-07T06:17:31.375Z,58.24
2022-09-07T06:19:59.219Z,58.27
2022-09-07T06:22:31.004Z,58.32
2022-09-07T06:24:59.583Z,57.89
2022-09-07T06:27:28.345Z,57.63
2022-09-07T06:29:56.597Z,56.70
2022-09-07T06:35:13.722Z,55.08
2022-09-07T06:37:42.198Z,54.69
2022-09-07T06:40:11.785Z,55.31
2022-09-07T06:42:40.110Z,54.98
2022-09-07T06:45:11.627Z,54.48
2022-09-07T06:47:41.115Z,54.92
2022-09-07T06:50:09.588Z,55.33
2022-09-07T06:55:27.986Z,53.57
2022-09-07T06:57:56.025Z,53.28
2022-09-07T07:00:23.952Z,53.40
2022-09-07T07:02:52.425Z,53.17
2022-09-07T07:05:20.461Z,52.47
2022-09-07T07:07:57.900Z,51.46
2022-09-07T07:10:25.730Z,51.01
2022-09-07T07:12:57.939Z,50.13
2022-09-07T07:15:28.651Z,49.42
2022-09-07T07:18:05.997Z,48.36
2022-09-07T07:20:42.538Z,48.78
2022-09-07T07:23:11.974Z,48.91
2022-09-07T07:25:39.777Z,48.33
2022-09-07T07:31:00.674Z,46.32
2022-09-07T07:33:33.775Z,46.16
2022-09-07T07:36:11.832Z,46.90
2022-09-07T07:44:20.923Z,44.21
2022-09-07T07:46:50.596Z,43.56
2022-09-07T07:49:18.994Z,44.06
2022-09-07T07:54:38.406Z,42.49
2022-09-07T07:57:06.795Z,42.25
2022-09-07T07:59:35.547Z,42.17
2022-09-07T08:02:05.821Z,41.80
2022-09-07T08:04:34.863Z,40.63
2022-09-07T08:07:08.643Z,39.65
2022-09-07T08:09:42.268Z,39.32
2022-09-07T08:12:13.180Z,38.39
2022-09-07T08:14:41.803Z,36.36
2022-09-07T08:17:15.980Z,35.89
2022-09-07T08:19:45.010Z,36.01
2022-09-07T08:22:13.382Z,36.77
2022-09-07T08:24:41.223Z,36.80
2022-09-07T08:27:09.303Z,35.99
2022-09-07T08:29:37.140Z,36.21
2022-09-07T08:32:06.863Z,36.10
2022-09-07T08:34:36.602Z,35.10
2022-09-07T08:37:04.534Z,34.79
2022-09-07T08:39:32.633Z,35.31
2022-09-07T08:42:10.988Z,35.86
2022-09-07T08:44:43.699Z,35.61
2022-09-07T08:47:38.697Z,35.06
2022-09-07T08:50:23.161Z,34.42
2022-09-07T08:53:15.265Z,33.67
2022-09-07T08:56:04.718Z,34.43
2022-09-07T08:58:49.155Z,34.80
2022-09-07T09:01:31.761Z,34.20
2022-09-07T09:04:17.238Z,33.24
2022-09-07T09:07:11.562Z,31.70
2022-09-07T09:09:46.198Z,30.99
2022-09-07T09:12:22.364Z,32.23
2022-09-07T09:15:18.204Z,32.79
2022-09-07T09:17:55.874Z,32.61
2022-09-07T09:20:31.153Z,32.63
2022-09-07T09:23:06.887Z,32.27
2022-09-07T09:25:38.376Z,31.88
2022-09-07T09:28:06.260Z,31.69
2022-09-07T09:30:34.185Z,30.60
2022-09-07T09:33:21.325Z,31.31
2022-09-07T09:35:51.502Z,31.37
2022-09-07T09:38:40.818Z,32.14
2022-09-07T09:41:11.305Z,32.98
2022-09-07T09:43:51.598Z,31.64
2022-09-07T09:46:31.673Z,32.04
2022-09-07T09:49:00.717Z,32.42
2022-09-07T09:54:25.265Z,31.83
2022-09-07T09:56:53.580Z,30.77
2022-09-07T10:05:38.165Z,31.72
2022-09-07T10:08:19.384Z,31.65
2022-09-07T10:11:14.505Z,30.59
2022-09-07T10:13:47.034Z,30.85
2022-09-07T10:16:15.159Z,30.77
2022-09-07T10:18:57.957Z,30.48
2022-09-07T10:21:31.152Z,30.59
2022-09-07T10:24:05.048Z,31.08
2022-09-07T10:26:35.595Z,30.77
2022-09-07T10:29:42.397Z,30.72
2022-09-07T10:32:33.654Z,31.54
2022-09-07T10:35:36.875Z,31.52
2022-09-07T10:38:16.499Z,31.50
2022-09-07T10:40:59.307Z,31.38
2022-09-07T10:43:48.521Z,31.33
2022-09-07T10:49:27.524Z,31.41
2022-09-07T10:51:58.952Z,30.62
2022-09-07T10:54:53.905Z,30.01
2022-09-07T10:58:00.996Z,29.54
2022-09-07T11:00:41.035Z,29.31
2022-09-07T11:03:25.303Z,30.16
2022-09-07T11:06:17.926Z,30.47
2022-09-07T11:12:03.981Z,31.06
2022-09-07T11:14:44.723Z,31.03
2022-09-07T11:17:20.980Z,30.72
2022-09-07T11:19:59.921Z,30.87
2022-09-07T11:22:35.235Z,30.32
2022-09-07T11:25:36.908Z,29.72
2022-09-07T11:28:20.758Z,29.57
2022-09-07T11:30:59.658Z,28.95
2022-09-07T11:33:36.615Z,29.85
2022-09-07T11:36:13.932Z,30.67
2022-09-07T11:38:54.279Z,31.29
2022-09-07T11:41:38.635Z,31.10
2022-09-07T11:44:21.891Z,30.18
2022-09-07T11:46:53.807Z,29.48
2022-09-07T11:49:26.277Z,29.08
2022-09-07T11:52:06.288Z,29.29
2022-09-07T11:54:57.783Z,29.83
2022-09-07T11:57:31.819Z,29.77
2022-09-07T12:00:02.600Z,29.58
2022-09-07T12:03:16.586Z,29.22
2022-09-07T12:06:04.180Z,28.86
2022-09-07T12:09:12.538Z,29.11
2022-09-07T12:11:55.656Z,29.87
2022-09-07T12:15:09.747Z,28.60
2022-09-07T12:18:00.491Z,28.88
2022-09-07T12:20:49.027Z,29.50
2022-09-07T12:23:16.999Z,29.31
2022-09-07T12:25:46.859Z,29.68
2022-09-07T12:28:37.633Z,29.76
2022-09-07T12:31:11.412Z,30.10
2022-09-07T12:33:40.665Z,29.04
2022-09-07T12:36:34.365Z,28.78
2022-09-07T12:39:25.817Z,28.34
2022-09-07T12:42:32.467Z,28.72
2022-09-07T12:45:29.009Z,28.33
2022-09-07T12:47:59.752Z,28.86
2022-09-07T12:50:38.172Z,28.68
2022-09-07T12:53:13.486Z,28.53
2022-09-07T12:56:27.751Z,28.54
2022-09-07T12:59:19.741Z,29.19
2022-09-07T13:02:15.073Z,29.27
2022-09-07T13:04:59.060Z,27.93
2022-09-07T13:07:42.409Z,28.13
2022-09-07T13:10:31.961Z,28.28
2022-09-07T13:16:17.844Z,27.56
2022-09-07T13:18:48.095Z,27.88
2022-09-07T13:21:18.140Z,28.26
2022-09-07T13:27:27.424Z,27.60
2022-09-07T13:30:00.475Z,28.20
2022-09-07T13:35:22.985Z,27.69
2022-09-07T13:38:00.948Z,28.04
2022-09-07T13:40:34.679Z,28.36
2022-09-07T13:43:04.449Z,28.96
2022-09-07T13:45:45.826Z,28.59
2022-09-07T13:48:28.228Z,28.10
2022-09-07T13:51:13.473Z,27.73
2022-09-07T13:53:47.442Z,27.33
2022-09-07T13:56:46.596Z,27.45
2022-09-07T13:59:31.206Z,28.05
2022-09-07T14:02:00.204Z,28.07
2022-09-07T14:04:49.486Z,27.80
2022-09-07T14:07:22.130Z,27.71
2022-09-07T14:10:03.542Z,27.91
2022-09-07T14:12:42.733Z,27.74
2022-09-07T14:15:19.001Z,27.84
2022-09-07T14:17:48.624Z,27.51
2022-09-07T14:20:18.672Z,26.97
2022-09-07T14:22:50.641Z,27.04
2022-09-07T14:25:22.951Z,27.10
2022-09-07T14:27:51.360Z,27.07
2022-09-07T14:30:19.033Z,26.81
2022-09-07T14:32:49.084Z,26.87
2022-09-07T14:35:20.121Z,27.21
2022-09-07T14:37:49.866Z,26.41
2022-09-07T14:40:24.008Z,26.51
2022-09-07T14:42:56.025Z,26.97
2022-09-07T14:45:24.001Z,27.00
2022-09-07T14:47:56.856Z,26.60
2022-09-07T14:50:33.888Z,26.74
2022-09-07T14:56:10.070Z,26.50
2022-09-07T14:58:38.027Z,26.43
2022-09-07T15:01:48.896Z,26.31
2022-09-07T15:04:19.566Z,27.04
2022-09-07T15:07:03.521Z,27.62
2022-09-07T15:09:37.403Z,27.28
2022-09-07T15:12:29.725Z,26.68
2022-09-07T15:15:22.282Z,26.00
2022-09-07T15:17:52.389Z,26.02
2022-09-07T15:20:36.309Z,26.24
2022-09-07T15:23:32.053Z,25.70
2022-09-07T15:26:00.148Z,26.04
2022-09-07T15:34:15.790Z,26.35
2022-09-07T15:36:51.034Z,26.34
2022-09-07T15:39:25.290Z,26.44
2022-09-07T15:41:54.506Z,26.38
2022-09-07T15:44:26.037Z,26.19
2022-09-07T15:49:50.048Z,26.93
2022-09-07T15:52:19.136Z,27.35
2022-09-07T15:54:47.052Z,27.55
2022-09-07T16:00:04.727Z,27.81
2022-09-07T16:05:31.185Z,28.81
2022-09-07T16:11:05.443Z,29.10
2022-09-07T16:13:42.795Z,29.19
2022-09-07T16:16:15.494Z,29.60
2022-09-07T16:18:46.958Z,30.26
2022-09-07T16:21:15.998Z,31.13
2022-09-07T16:23:52.147Z,32.32
2022-09-07T16:26:25.428Z,32.50
2022-09-07T16:28:53.977Z,33.34
2022-09-07T16:31:26.358Z,34.75
2022-09-07T16:33:54.765Z,35.65
2022-09-07T16:36:23.768Z,36.52
2022-09-07T16:38:59.639Z,36.87
2022-09-07T16:41:34.764Z,37.11
2022-09-07T16:44:03.062Z,37.65
2022-09-07T16:46:31.177Z,38.48
2022-09-07T16:48:58.921Z,39.14
2022-09-07T16:51:28.582Z,39.58
2022-09-07T16:53:59.780Z,39.83
2022-09-07T16:56:30.787Z,40.31
2022-09-07T16:59:02.116Z,40.87
2022-09-07T17:01:32.621Z,41.19
2022-09-07T17:04:04.487Z,41.64
2022-09-07T17:06:36.394Z,42.25
2022-09-07T17:09:05.368Z,42.66
2022-09-07T17:11:36.727Z,43.17
2022-09-07T17:14:06.778Z,43.62
2022-09-07T17:16:38.888Z,43.97
2022-09-07T17:19:30.114Z,44.42
2022-09-07T17:22:02.215Z,44.79
2022-09-07T17:24:32.225Z,45.02
2022-09-07T17:27:01.223Z,45.36
2022-09-07T17:29:37.142Z,45.63
2022-09-07T17:34:55.899Z,46.07
2022-09-07T17:37:26.907Z,46.27
2022-09-07T17:40:08.341Z,46.58
2022-09-07T17:45:34.170Z,47.24
2022-09-07T17:48:16.321Z,47.45
2022-09-07T17:50:48.453Z,47.77
2022-09-07T17:53:17.567Z,48.05
2022-09-07T17:55:50.067Z,48.23
2022-09-07T17:58:29.268Z,48.56
2022-09-07T18:01:30.974Z,48.79
2022-09-07T18:03:59.575Z,49.11
2022-09-07T18:06:32.140Z,49.41
2022-09-07T18:09:04.052Z,49.69
2022-09-07T18:11:45.490Z,49.90
2022-09-07T18:14:19.162Z,50.18
2022-09-07T18:16:50.002Z,50.39
2022-09-07T18:19:19.514Z,50.70
2022-09-07T18:21:52.010Z,50.75
2022-09-07T18:24:23.775Z,50.87
2022-09-07T18:26:54.255Z,50.63
2022-09-07T18:29:34.246Z,50.99
2022-09-07T18:32:08.025Z,50.74
2022-09-07T18:34:40.701Z,50.72
2022-09-07T18:37:12.773Z,50.61
2022-09-07T18:39:41.752Z,50.56
2022-09-07T18:42:10.303Z,50.63
2022-09-07T18:47:29.565Z,50.75
2022-09-07T18:49:58.817Z,50.79
2022-09-07T18:55:16.413Z,51.06
2022-09-07T18:57:44.906Z,50.99
2022-09-07T19:00:14.371Z,50.87
2022-09-07T19:02:42.486Z,50.80
2022-09-07T19:07:59.759Z,50.92
2022-09-07T19:10:27.883Z,51.20
2022-09-07T19:12:56.534Z,51.33
2022-09-07T19:15:25.518Z,51.51
2022-09-07T19:17:53.570Z,51.50
2022-09-07T19:20:21.939Z,51.71
2022-09-07T19:22:49.890Z,51.90
2022-09-07T19:25:19.464Z,51.91
2022-09-07T19:27:47.456Z,52.13
2022-09-07T19:30:17.479Z,52.28
2022-09-07T19:32:45.412Z,52.16
2022-09-07T19:35:13.487Z,52.30
2022-09-07T19:37:44.670Z,51.90
2022-09-07T19:40:18.627Z,51.93
2022-09-07T19:42:47.944Z,51.49
2022-09-07T19:45:16.064Z,51.14
2022-09-07T19:47:44.531Z,51.07
2022-09-07T19:50:12.725Z,50.72
2022-09-07T19:52:40.874Z,50.35
2022-09-07T19:55:09.244Z,50.62
2022-09-07T19:57:37.368Z,50.43
2022-09-07T20:00:06.099Z,50.36
2022-09-07T20:02:40.546Z,50.16
2022-09-07T20:05:08.794Z,49.89
2022-09-07T20:07:36.588Z,49.79
2022-09-07T20:10:06.975Z,50.11
2022-09-07T20:12:34.922Z,50.07
2022-09-07T20:15:02.714Z,49.54
2022-09-07T20:17:35.057Z,49.74
2022-09-07T20:20:04.734Z,49.81
2022-09-07T20:22:32.967Z,49.66
2022-09-07T20:25:01.040Z,49.62
2022-09-07T20:27:29.113Z,49.81
2022-09-07T20:29:57.097Z,49.62
2022-09-07T20:32:24.905Z,49.50
2022-09-07T20:34:53.411Z,49.66
2022-09-07T20:37:25.510Z,49.72
2022-09-07T20:39:53.426Z,49.57
2022-09-07T20:42:22.085Z,49.43
2022-09-07T20:44:50.262Z,49.71
2022-09-07T20:47:18.156Z,49.46
2022-09-07T20:49:46.391Z,49.68
2022-09-07T20:52:14.960Z,49.70
2022-09-07T20:54:42.781Z,49.88
2022-09-07T20:57:11.020Z,49.95
2022-09-07T20:59:39.501Z,50.16
2022-09-07T21:02:09.892Z,50.17
2022-09-07T21:04:37.972Z,50.36
2022-09-07T21:07:06.109Z,50.67
2022-09-07T21:09:34.238Z,50.53
2022-09-07T21:12:02.721Z,50.58
2022-09-07T21:14:30.846Z,50.65
2022-09-07T21:16:58.760Z,50.88
2022-09-07T21:19:26.630Z,51.22
2022-09-07T21:21:54.600Z,51.23
2022-09-07T21:24:23.695Z,51.21
2022-09-07T21:26:52.148Z,51.73
2022-09-07T21:29:23.808Z,52.02
2022-09-07T21:31:55.296Z,52.24
2022-09-07T21:34:23.372Z,52.44
2022-09-07T21:36:52.134Z,52.65
2022-09-07T21:39:21.489Z,52.76
2022-09-07T21:41:49.531Z,53.04
2022-09-07T21:44:17.658Z,53.19
2022-09-07T21:46:46.000Z,53.25
2022-09-07T21:49:14.491Z,53.31
2022-09-07T21:51:42.417Z,53.37
2022-09-07T21:54:10.624Z,53.93
2022-09-07T21:56:41.071Z,54.00
2022-09-07T21:59:13.275Z,54.18
2022-09-07T22:01:42.211Z,54.40
2022-09-07T22:04:10.707Z,54.57
2022-09-07T22:06:45.126Z,54.72
2022-09-07T22:09:13.728Z,54.72
2022-09-07T22:11:45.853Z,54.99
2022-09-07T22:14:16.344Z,55.22
2022-09-07T22:16:45.253Z,55.39
2022-09-07T22:19:13.503Z,55.55
2022-09-07T22:21:41.934Z,55.54
2022-09-07T22:24:12.396Z,55.61
2022-09-07T22:26:40.270Z,55.55
2022-09-07T22:29:10.974Z,55.47
2022-09-07T22:31:40.159Z,55.63
2022-09-07T22:34:09.572Z,55.81
2022-09-07T22:36:43.619Z,56.07
2022-09-07T22:39:18.070Z,56.18
2022-09-07T22:41:47.907Z,56.26
2022-09-07T22:44:18.763Z,56.28
2022-09-07T22:46:48.316Z,56.68
2022-09-07T22:49:17.219Z,56.82
2022-09-07T22:51:45.488Z,56.97
2022-09-07T22:54:14.367Z,57.06
2022-09-07T22:56:42.479Z,57.32
2022-09-07T22:59:12.082Z,57.31
2022-09-07T23:01:40.072Z,57.41
2022-09-07T23:04:08.854Z,57.54
2022-09-07T23:06:43.118Z,57.67
2022-09-07T23:09:14.678Z,57.75
2022-09-07T23:11:43.514Z,57.76
2022-09-07T23:14:15.306Z,57.83
2022-09-07T23:16:45.018Z,57.74
2022-09-07T23:19:14.865Z,57.67
2022-09-07T23:21:43.732Z,57.80
2022-09-07T23:24:19.483Z,57.97
2022-09-07T23:26:47.787Z,58.22
2022-09-07T23:29:16.283Z,58.27
2022-09-07T23:31:45.704Z,58.09
2022-09-07T23:34:13.783Z,57.67
2022-09-07T23:36:42.707Z,57.73
2022-09-07T23:39:11.231Z,57.59
2022-09-07T23:41:39.377Z,57.61
2022-09-07T23:44:07.557Z,57.61
2022-09-07T23:46:35.474Z,57.13
2022-09-07T23:49:03.625Z,57.22
2022-09-07T23:51:31.774Z,57.20
2022-09-07T23:53:59.858Z,57.19
2022-09-07T23:56:28.170Z,57.11
2022-09-07T23:58:56.232Z,57.13
